createdAt,value
2023-08-11T00:01:13.486Z,102102.27
2023-08-11T00:03:41.606Z,102103.14
2023-08-11T00:06:09.814Z,102101.91
2023-08-11T00:08:40.039Z,102099.98
2023-08-11T00:11:08.214Z,102097.02
2023-08-11T00:13:36.790Z,102098.23
2023-08-11T00:16:06.245Z,102098.07
2023-08-11T00:18:34.474Z,102097.02
2023-08-11T00:21:04.329Z,102100.02
2023-08-11T00:23:32.652Z,102092.11
2023-08-11T00:26:00.673Z,102096.33
2023-08-11T00:28:29.002Z,102094.39
2023-08-11T00:30:59.654Z,102095.62
2023-08-11T00:33:27.915Z,102097.38
2023-08-11T00:35:56.532Z,102101.06
2023-08-11T00:38:27.421Z,102103.34
2023-08-11T00:40:55.600Z,102103.70
2023-08-11T00:43:23.614Z,102102.13
2023-08-11T00:45:51.769Z,102107.94
2023-08-11T00:48:20.581Z,102110.59
2023-08-11T00:50:49.117Z,102110.95
2023-08-11T00:53:17.286Z,102108.85
2023-08-11T00:55:45.557Z,102114.83
2023-08-11T00:58:13.887Z,102114.48
2023-08-11T01:00:42.243Z,102119.06
2023-08-11T01:03:10.497Z,102115.92
2023-08-11T01:05:46.440Z,102115.75
2023-08-11T01:08:45.192Z,102114.54
2023-08-11T01:11:41.671Z,102111.41
2023-08-11T01:14:28.906Z,102111.27
2023-08-11T01:16:59.532Z,102107.59
2023-08-11T01:19:36.234Z,102100.75
2023-08-11T01:22:11.896Z,102101.12
2023-08-11T01:24:41.238Z,102101.31
2023-08-11T01:27:09.678Z,102104.13
2023-08-11T01:29:38.450Z,102100.62
2023-08-11T01:32:07.249Z,102099.40
2023-08-11T01:34:36.536Z,102102.55
2023-08-11T01:37:05.805Z,102097.64
2023-08-11T01:39:34.480Z,102103.27
2023-08-11T01:42:02.938Z,102102.74
2023-08-11T01:44:31.596Z,102094.86
2023-08-11T01:46:59.936Z,102097.33
2023-08-11T01:49:28.670Z,102097.33
2023-08-11T01:51:58.249Z,102095.05
2023-08-11T01:54:26.535Z,102095.41
2023-08-11T01:56:55.908Z,102095.95
2023-08-11T01:59:23.996Z,102094.92
2023-08-11T02:01:52.152Z,102093.34
2023-08-11T02:04:22.358Z,102091.92
2023-08-11T02:06:50.536Z,102089.83
2023-08-11T02:09:18.618Z,102093.52
2023-08-11T02:11:46.780Z,102091.95
2023-08-11T02:14:15.501Z,102088.97
2023-08-11T02:16:43.645Z,102085.11
2023-08-11T02:19:12.114Z,102090.04
2023-08-11T02:21:40.586Z,102089.86
2023-08-11T02:24:08.697Z,102092.16
2023-08-11T02:26:37.156Z,102092.50
2023-08-11T02:29:05.462Z,102091.46
2023-08-11T02:31:34.498Z,102088.48
2023-08-11T02:34:02.783Z,102090.24
2023-08-11T02:36:30.863Z,102094.80
2023-08-11T02:38:58.973Z,102106.04
2023-08-11T02:41:27.414Z,102107.98
2023-08-11T02:43:55.579Z,102107.98
2023-08-11T02:46:24.174Z,102106.39
2023-08-11T02:48:52.337Z,102102.17
2023-08-11T02:51:20.609Z,102098.67
2023-08-11T02:53:48.778Z,102096.92
2023-08-11T02:56:17.569Z,102096.92
2023-08-11T02:58:45.938Z,102096.23
2023-08-11T03:01:15.722Z,102100.26
2023-08-11T03:03:44.260Z,102103.59
2023-08-11T03:06:12.621Z,102102.71
2023-08-11T03:08:41.089Z,102107.63
2023-08-11T03:11:09.879Z,102107.98
2023-08-11T03:13:38.057Z,102110.95
2023-08-11T03:16:07.070Z,102113.23
2023-08-11T03:18:36.799Z,102113.59
2023-08-11T03:21:18.541Z,102114.64
2023-08-11T03:23:49.186Z,102111.84
2023-08-11T03:26:17.658Z,102111.31
2023-08-11T03:28:46.034Z,102112.36
2023-08-11T03:31:15.244Z,102109.02
2023-08-11T03:33:45.246Z,102109.90
2023-08-11T03:36:15.741Z,102107.45
2023-08-11T03:38:45.241Z,102108.66
2023-08-11T03:41:13.359Z,102109.20
2023-08-11T03:43:41.827Z,102103.94
2023-08-11T03:46:10.352Z,102109.55
2023-08-11T03:48:39.510Z,102112.17
2023-08-11T03:51:08.405Z,102110.08
2023-08-11T03:53:37.841Z,102117.62
2023-08-11T03:56:09.095Z,102119.54
2023-08-11T03:58:41.309Z,102121.30
2023-08-11T04:01:09.698Z,102122.35
2023-08-11T04:03:38.084Z,102124.44
2023-08-11T04:06:06.282Z,102126.20
2023-08-11T04:08:34.722Z,102122.31
2023-08-11T04:11:02.715Z,102120.03
2023-08-11T04:13:30.785Z,102117.74
2023-08-11T04:16:00.671Z,102118.08
2023-08-11T04:18:28.787Z,102116.32
2023-08-11T04:20:57.434Z,102121.05
2023-08-11T04:23:25.913Z,102122.46
2023-08-11T04:25:55.169Z,102124.23
2023-08-11T04:28:23.531Z,102125.81
2023-08-11T04:30:51.855Z,102128.09
2023-08-11T04:33:20.292Z,102128.77
2023-08-11T04:35:51.053Z,102128.41
2023-08-11T04:38:19.470Z,102126.98
2023-08-11T04:40:51.858Z,102130.63
2023-08-11T04:43:21.037Z,102130.05
2023-08-11T04:45:50.520Z,102130.52
2023-08-11T04:48:19.103Z,102129.75
2023-08-11T04:50:54.576Z,102129.30
2023-08-11T04:53:22.953Z,102131.83
2023-08-11T04:55:52.588Z,102126.83
2023-08-11T04:58:21.734Z,102123.36
2023-08-11T05:00:50.208Z,102123.52
2023-08-11T05:03:20.077Z,102118.27
2023-08-11T05:05:48.512Z,102116.04
2023-08-11T05:08:16.877Z,102119.78
2023-08-11T05:10:45.053Z,102119.87
2023-08-11T05:13:14.357Z,102120.09
2023-08-11T05:15:42.536Z,102117.55
2023-08-11T05:18:11.602Z,102120.95
2023-08-11T05:20:39.883Z,102116.73
2023-08-11T05:23:07.962Z,102116.28
2023-08-11T05:25:36.038Z,102115.85
2023-08-11T05:28:04.660Z,102117.15
2023-08-11T05:30:32.898Z,102111.38
2023-08-11T05:33:01.133Z,102118.56
2023-08-11T05:35:30.583Z,102116.59
2023-08-11T05:37:58.890Z,102109.52
2023-08-11T05:40:27.014Z,102110.09
2023-08-11T05:42:55.192Z,102110.66
2023-08-11T05:45:23.273Z,102110.89
2023-08-11T05:47:51.502Z,102109.15
2023-08-11T05:50:19.809Z,102114.70
2023-08-11T05:52:47.988Z,102115.98
2023-08-11T05:55:16.489Z,102116.75
2023-08-11T05:57:44.740Z,102111.61
2023-08-11T06:00:17.476Z,102109.69
2023-08-11T06:02:48.801Z,102110.26
2023-08-11T06:05:17.154Z,102109.43
2023-08-11T06:07:55.691Z,102106.91
2023-08-11T06:10:28.515Z,102106.13
2023-08-11T06:12:56.718Z,102106.61
2023-08-11T06:15:24.997Z,102106.11
2023-08-11T06:17:53.189Z,102108.27
2023-08-11T06:20:34.489Z,102103.45
2023-08-11T06:23:09.740Z,102105.99
2023-08-11T06:25:38.423Z,102106.87
2023-08-11T06:28:06.844Z,102112.77
2023-08-11T06:30:35.339Z,102109.20
2023-08-11T06:33:03.923Z,102119.39
2023-08-11T06:35:32.503Z,102119.55
2023-08-11T06:38:01.164Z,102118.84
2023-08-11T06:40:31.034Z,102121.95
2023-08-11T06:43:00.444Z,102122.39
2023-08-11T06:45:28.900Z,102118.40
2023-08-11T06:47:57.676Z,102120.64
2023-08-11T06:50:26.477Z,102120.86
2023-08-11T06:52:55.843Z,102127.58
2023-08-11T06:55:25.867Z,102132.86
2023-08-11T06:57:54.556Z,102136.52
2023-08-11T07:00:23.346Z,102138.59
2023-08-11T07:02:51.915Z,102141.87
2023-08-11T07:05:20.302Z,102139.02
2023-08-11T07:07:48.641Z,102145.25
2023-08-11T07:10:16.950Z,102145.81
2023-08-11T07:12:45.118Z,102143.05
2023-08-11T07:15:13.296Z,102145.11
2023-08-11T07:17:41.438Z,102146.17
2023-08-11T07:20:09.992Z,102146.17
2023-08-11T07:22:38.330Z,102149.12
2023-08-11T07:25:06.710Z,102154.91
2023-08-11T07:27:34.880Z,102157.13
2023-08-11T07:30:03.359Z,102157.80
2023-08-11T07:32:31.548Z,102152.14
2023-08-11T07:34:59.908Z,102146.73
2023-08-11T07:37:28.083Z,102144.19
2023-08-11T07:39:56.212Z,102149.02
2023-08-11T07:42:24.598Z,102144.78
2023-08-11T07:44:52.950Z,102149.63
2023-08-11T07:47:21.173Z,102145.38
2023-08-11T07:49:49.321Z,102143.34
2023-08-11T07:52:18.958Z,102151.08
2023-08-11T07:54:47.183Z,102145.43
2023-08-11T07:57:17.555Z,102153.15
2023-08-11T07:59:46.913Z,102147.52
2023-08-11T08:02:16.785Z,102152.82
2023-08-11T08:04:45.352Z,102153.45
2023-08-11T08:07:16.081Z,102150.52
2023-08-11T08:09:44.420Z,102148.55
2023-08-11T08:12:12.636Z,102149.57
2023-08-11T08:14:40.671Z,102152.84
2023-08-11T08:17:09.017Z,102156.35
2023-08-11T08:19:37.362Z,102158.32
2023-08-11T08:22:05.882Z,102162.00
2023-08-11T08:24:34.014Z,102163.46
2023-08-11T08:27:02.094Z,102164.38
2023-08-11T08:29:30.365Z,102164.00
2023-08-11T08:31:58.358Z,102162.80
2023-08-11T08:34:26.508Z,102161.23
2023-08-11T08:36:54.601Z,102161.71
2023-08-11T08:39:22.648Z,102164.80
2023-08-11T08:41:52.380Z,102164.35
2023-08-11T08:44:21.389Z,102167.24
2023-08-11T08:46:52.421Z,102166.68
2023-08-11T08:49:26.947Z,102163.34
2023-08-11T08:51:55.836Z,102160.49
2023-08-11T08:54:25.177Z,102155.83
2023-08-11T08:56:53.731Z,102159.70
2023-08-11T08:59:23.095Z,102159.53
2023-08-11T09:01:51.843Z,102159.10
2023-08-11T09:04:22.187Z,102155.95
2023-08-11T09:06:55.380Z,102157.14
2023-08-11T09:09:28.753Z,102159.62
2023-08-11T09:11:57.641Z,102154.47
2023-08-11T09:14:25.752Z,102153.80
2023-08-11T09:16:54.973Z,102155.16
2023-08-11T09:19:24.921Z,102157.23
2023-08-11T09:21:53.786Z,102152.77
2023-08-11T09:24:24.296Z,102149.58
2023-08-11T09:26:52.847Z,102146.35
2023-08-11T09:29:22.036Z,102147.88
2023-08-11T09:31:55.154Z,102145.02
2023-08-11T09:34:23.978Z,102139.59
2023-08-11T09:36:52.517Z,102138.71
2023-08-11T09:39:21.941Z,102131.64
2023-08-11T09:41:50.485Z,102134.83
2023-08-11T09:44:20.611Z,102136.15
2023-08-11T09:46:51.193Z,102137.28
2023-08-11T09:49:20.068Z,102136.78
2023-08-11T09:51:50.391Z,102142.50
2023-08-11T09:54:19.775Z,102142.41
2023-08-11T09:56:49.528Z,102142.43
2023-08-11T09:59:21.219Z,102143.92
2023-08-11T10:01:53.341Z,102141.34
2023-08-11T10:04:26.887Z,102143.06
2023-08-11T10:06:59.600Z,102141.13
2023-08-11T10:09:30.092Z,102138.02
2023-08-11T10:11:59.734Z,102145.27
2023-08-11T10:14:29.363Z,102151.42
2023-08-11T10:17:00.479Z,102146.95
2023-08-11T10:19:31.928Z,102152.02
2023-08-11T10:22:03.954Z,102152.30
2023-08-11T10:24:38.572Z,102152.70
2023-08-11T10:27:09.280Z,102152.14
2023-08-11T10:29:43.846Z,102151.08
2023-08-11T10:32:30.015Z,102151.52
2023-08-11T10:34:58.911Z,102150.66
2023-08-11T10:37:32.635Z,102141.69
2023-08-11T10:40:10.733Z,102138.14
2023-08-11T10:42:42.341Z,102139.05
2023-08-11T10:45:14.614Z,102138.11
2023-08-11T10:47:54.553Z,102141.57
2023-08-11T10:50:32.188Z,102145.73
2023-08-11T10:53:30.157Z,102147.16
2023-08-11T10:56:06.530Z,102147.06
2023-08-11T10:58:38.899Z,102144.73
2023-08-11T11:01:07.573Z,102147.14
2023-08-11T11:03:42.769Z,102145.52
2023-08-11T11:06:11.313Z,102143.14
2023-08-11T11:08:45.427Z,102145.17
2023-08-11T11:11:14.815Z,102147.77
2023-08-11T11:13:45.522Z,102152.36
2023-08-11T11:16:15.757Z,102150.12
2023-08-11T11:18:48.566Z,102147.61
2023-08-11T11:21:31.052Z,102147.98
2023-08-11T11:24:01.010Z,102148.40
2023-08-11T11:26:32.740Z,102153.02
2023-08-11T11:29:06.273Z,102152.27
2023-08-11T11:31:38.694Z,102154.67
2023-08-11T11:34:08.548Z,102154.20
2023-08-11T11:36:38.470Z,102154.82
2023-08-11T11:39:07.395Z,102153.17
2023-08-11T11:41:35.903Z,102149.36
2023-08-11T11:44:05.811Z,102146.02
2023-08-11T11:46:36.305Z,102144.10
2023-08-11T11:49:15.719Z,102141.56
2023-08-11T11:51:53.675Z,102138.52
2023-08-11T11:54:22.665Z,102137.17
2023-08-11T11:57:03.386Z,102138.98
2023-08-11T11:59:35.331Z,102141.50
2023-08-11T12:02:07.334Z,102138.48
2023-08-11T12:04:40.511Z,102138.48
2023-08-11T12:07:35.142Z,102134.20
2023-08-11T12:10:07.422Z,102133.35
2023-08-11T12:12:36.488Z,102129.96
2023-08-11T12:15:07.024Z,102126.46
2023-08-11T12:17:36.598Z,102125.29
2023-08-11T12:20:08.251Z,102126.89
2023-08-11T12:22:36.568Z,102129.90
2023-08-11T12:25:05.360Z,102129.14
2023-08-11T12:27:36.709Z,102128.09
2023-08-11T12:30:05.876Z,102129.48
2023-08-11T12:32:33.985Z,102131.80
2023-08-11T12:35:02.150Z,102132.27
2023-08-11T12:37:30.185Z,102134.17
2023-08-11T12:39:58.189Z,102129.91
2023-08-11T12:42:26.186Z,102132.93
2023-08-11T12:44:54.154Z,102134.53
2023-08-11T12:47:23.230Z,102127.34
2023-08-11T12:49:51.484Z,102130.86
2023-08-11T12:52:19.452Z,102129.16
2023-08-11T12:54:47.473Z,102130.12
2023-08-11T12:57:15.706Z,102126.64
2023-08-11T12:59:43.690Z,102126.73
2023-08-11T13:02:12.329Z,102123.66
2023-08-11T13:04:40.740Z,102125.63
2023-08-11T13:07:09.011Z,102122.94
2023-08-11T13:09:37.134Z,102124.77
2023-08-11T13:12:07.477Z,102118.79
2023-08-11T13:14:35.790Z,102120.82
2023-08-11T13:17:03.952Z,102123.61
2023-08-11T13:19:33.256Z,102120.00
2023-08-11T13:22:07.941Z,102117.34
2023-08-11T13:24:36.873Z,102115.32
2023-08-11T13:27:06.089Z,102116.45
2023-08-11T13:29:34.621Z,102113.81
2023-08-11T13:32:03.412Z,102116.43
2023-08-11T13:34:32.273Z,102117.60
2023-08-11T13:37:01.339Z,102123.08
2023-08-11T13:39:32.124Z,102122.27
2023-08-11T13:42:07.815Z,102120.58
2023-08-11T13:44:36.787Z,102116.73
2023-08-11T13:47:05.769Z,102116.27
2023-08-11T13:49:34.849Z,102112.42
2023-08-11T13:52:08.475Z,102115.66
2023-08-11T13:54:37.573Z,102115.11
2023-08-11T13:57:07.322Z,102113.80
2023-08-11T13:59:35.868Z,102108.61
2023-08-11T14:02:04.238Z,102108.59
2023-08-11T14:04:32.649Z,102108.43
2023-08-11T14:07:18.331Z,102107.79
2023-08-11T14:09:51.290Z,102104.49
2023-08-11T14:12:22.874Z,102099.67
2023-08-11T14:14:51.325Z,102101.67
2023-08-11T14:17:19.658Z,102104.87
2023-08-11T14:19:48.081Z,102099.74
2023-08-11T14:22:16.290Z,102102.21
2023-08-11T14:24:46.471Z,102094.02
2023-08-11T14:27:14.857Z,102091.41
2023-08-11T14:29:43.240Z,102090.52
2023-08-11T14:32:24.555Z,102094.27
2023-08-11T14:34:54.313Z,102097.23
2023-08-11T14:37:22.697Z,102101.20
2023-08-11T14:39:51.080Z,102101.41
2023-08-11T14:42:19.272Z,102104.71
2023-08-11T14:44:47.728Z,102101.59
2023-08-11T14:47:16.076Z,102101.54
2023-08-11T14:49:45.400Z,102102.11
2023-08-11T14:52:14.762Z,102103.71
2023-08-11T14:54:43.640Z,102109.61
2023-08-11T14:57:14.444Z,102111.27
2023-08-11T14:59:42.897Z,102106.33
2023-08-11T15:02:12.033Z,102105.79
2023-08-11T15:04:40.364Z,102105.80
2023-08-11T15:07:09.010Z,102102.52
2023-08-11T15:09:37.250Z,102099.45
2023-08-11T15:12:08.115Z,102099.24
2023-08-11T15:14:36.553Z,102099.19
2023-08-11T15:17:04.801Z,102100.42
2023-08-11T15:19:33.213Z,102095.36
2023-08-11T15:22:01.390Z,102096.33
2023-08-11T15:24:29.447Z,102093.98
2023-08-11T15:26:57.522Z,102099.07
2023-08-11T15:29:25.801Z,102096.99
2023-08-11T15:31:54.881Z,102098.52
2023-08-11T15:34:23.268Z,102100.46
2023-08-11T15:36:51.444Z,102098.59
2023-08-11T15:39:20.023Z,102101.50
2023-08-11T15:41:48.193Z,102101.42
2023-08-11T15:44:16.306Z,102102.19
2023-08-11T15:46:44.614Z,102105.58
2023-08-11T15:49:12.712Z,102105.10
2023-08-11T15:51:40.893Z,102109.04
2023-08-11T15:54:09.262Z,102111.42
2023-08-11T15:56:37.456Z,102107.08
2023-08-11T15:59:07.188Z,102107.67
2023-08-11T16:01:36.000Z,102102.77
2023-08-11T16:04:05.322Z,102100.92
2023-08-11T16:06:33.725Z,102100.48
2023-08-11T16:09:02.194Z,102102.14
2023-08-11T16:11:30.468Z,102109.00
2023-08-11T16:13:58.636Z,102110.52
2023-08-11T16:16:27.162Z,102107.71
2023-08-11T16:18:56.957Z,102111.02
2023-08-11T16:21:27.708Z,102111.73
2023-08-11T16:23:58.233Z,102109.28
2023-08-11T16:26:26.673Z,102106.05
2023-08-11T16:28:55.365Z,102106.00
2023-08-11T16:31:24.360Z,102102.05
2023-08-11T16:33:53.034Z,102104.69
2023-08-11T16:36:25.100Z,102097.70
2023-08-11T16:38:53.991Z,102099.16
2023-08-11T16:41:24.165Z,102101.46
2023-08-11T16:43:53.371Z,102110.85
2023-08-11T16:46:23.843Z,102110.22
2023-08-11T16:48:52.316Z,102108.33
2023-08-11T16:51:23.174Z,102109.63
2023-08-11T16:53:54.910Z,102110.56
2023-08-11T16:56:23.494Z,102109.66
2023-08-11T16:58:52.483Z,102115.09
2023-08-11T17:01:21.693Z,102117.02
2023-08-11T17:04:05.457Z,102116.86
2023-08-11T17:06:33.692Z,102121.12
2023-08-11T17:09:02.080Z,102117.67
2023-08-11T17:11:30.346Z,102116.34
2023-08-11T17:13:58.718Z,102116.09
2023-08-11T17:16:27.065Z,102115.98
2023-08-11T17:18:55.580Z,102115.59
2023-08-11T17:21:23.695Z,102117.96
2023-08-11T17:23:57.266Z,102119.55
2023-08-11T17:26:25.556Z,102121.58
2023-08-11T17:28:55.727Z,102129.95
2023-08-11T17:31:24.753Z,102130.45
2023-08-11T17:33:53.581Z,102129.77
2023-08-11T17:36:27.021Z,102134.69
2023-08-11T17:38:55.598Z,102135.92
2023-08-11T17:41:27.948Z,102134.47
2023-08-11T17:43:57.987Z,102132.47
2023-08-11T17:46:27.345Z,102136.25
2023-08-11T17:48:55.779Z,102136.84
2023-08-11T17:51:25.278Z,102138.09
2023-08-11T17:54:08.131Z,102139.89
2023-08-11T17:56:38.585Z,102139.77
2023-08-11T17:59:07.041Z,102142.61
2023-08-11T18:01:35.315Z,102144.56
2023-08-11T18:04:06.348Z,102143.33
2023-08-11T18:06:37.004Z,102142.89
2023-08-11T18:09:05.571Z,102139.20
2023-08-11T18:11:35.143Z,102142.06
2023-08-11T18:14:04.450Z,102142.75
2023-08-11T18:16:34.100Z,102141.11
2023-08-11T18:19:02.479Z,102143.10
2023-08-11T18:21:31.728Z,102145.77
2023-08-11T18:24:02.604Z,102147.02
2023-08-11T18:26:36.218Z,102150.59
2023-08-11T18:29:05.666Z,102153.10
2023-08-11T18:31:33.890Z,102155.79
2023-08-11T18:34:03.336Z,102161.09
2023-08-11T18:36:33.397Z,102161.41
2023-08-11T18:39:02.189Z,102162.41
2023-08-11T18:41:31.452Z,102167.16
2023-08-11T18:44:05.633Z,102171.16
2023-08-11T18:46:37.027Z,102172.53
2023-08-11T18:49:07.688Z,102174.60
2023-08-11T18:51:41.500Z,102177.73
2023-08-11T18:54:11.110Z,102180.73
2023-08-11T18:56:43.574Z,102181.35
2023-08-11T18:59:12.748Z,102183.75
2023-08-11T19:01:42.043Z,102184.92
2023-08-11T19:04:12.982Z,102182.34
2023-08-11T19:06:41.852Z,102182.61
2023-08-11T19:09:11.542Z,102178.85
2023-08-11T19:11:43.550Z,102177.89
2023-08-11T19:14:13.846Z,102185.05
2023-08-11T19:16:52.295Z,102185.36
2023-08-11T19:19:20.827Z,102190.17
2023-08-11T19:21:49.198Z,102193.05
2023-08-11T19:24:18.052Z,102189.24
2023-08-11T19:26:47.497Z,102190.59
2023-08-11T19:29:15.940Z,102191.02
2023-08-11T19:31:44.475Z,102190.58
2023-08-11T19:34:12.773Z,102191.88
2023-08-11T19:36:44.694Z,102197.21
2023-08-11T19:39:16.495Z,102196.90
2023-08-11T19:41:45.846Z,102197.31
2023-08-11T19:44:15.047Z,102197.36
2023-08-11T19:46:43.838Z,102201.09
2023-08-11T19:49:13.955Z,102198.84
2023-08-11T19:51:45.585Z,102193.23
2023-08-11T19:54:14.490Z,102194.14
2023-08-11T19:56:44.129Z,102191.67
2023-08-11T19:59:12.474Z,102193.11
2023-08-11T20:01:42.108Z,102196.52
2023-08-11T20:04:10.573Z,102199.23
2023-08-11T20:06:43.796Z,102200.86
2023-08-11T20:09:13.573Z,102203.89
2023-08-11T20:11:42.150Z,102207.10
2023-08-11T20:14:11.694Z,102203.22
2023-08-11T20:16:42.210Z,102204.82
2023-08-11T20:19:11.691Z,102203.43
2023-08-11T20:21:40.497Z,102197.11
2023-08-11T20:24:09.384Z,102204.39
2023-08-11T20:26:37.729Z,102203.20
2023-08-11T20:29:06.936Z,102201.30
2023-08-11T20:31:35.344Z,102208.38
2023-08-11T20:34:04.015Z,102208.36
2023-08-11T20:36:32.296Z,102206.92
2023-08-11T20:39:00.685Z,102209.20
2023-08-11T20:41:29.053Z,102207.45
2023-08-11T20:43:58.538Z,102209.05
2023-08-11T20:46:26.928Z,102204.66
2023-08-11T20:48:55.304Z,102208.73
2023-08-11T20:51:23.360Z,102207.23
2023-08-11T20:53:51.542Z,102207.64
2023-08-11T20:56:19.710Z,102204.89
2023-08-11T20:58:48.345Z,102206.54
2023-08-11T21:01:16.611Z,102215.20
2023-08-11T21:03:44.797Z,102213.63
2023-08-11T21:06:13.220Z,102217.52
2023-08-11T21:08:46.589Z,102217.22
2023-08-11T21:11:15.812Z,102212.88
2023-08-11T21:13:44.132Z,102209.41
2023-08-11T21:16:12.209Z,102210.35
2023-08-11T21:18:40.335Z,102210.41
2023-08-11T21:21:08.502Z,102210.64
2023-08-11T21:23:37.807Z,102211.22
2023-08-11T21:26:06.693Z,102206.15
2023-08-11T21:28:37.166Z,102203.75
2023-08-11T21:31:17.444Z,102198.86
2023-08-11T21:34:08.311Z,102201.08
2023-08-11T21:36:38.224Z,102200.31
2023-08-11T21:39:09.035Z,102200.55
2023-08-11T21:41:38.124Z,102202.20
2023-08-11T21:44:07.008Z,102200.64
2023-08-11T21:46:36.039Z,102198.75
2023-08-11T21:49:04.857Z,102196.16
2023-08-11T21:51:36.753Z,102195.14
2023-08-11T21:54:05.335Z,102199.60
2023-08-11T21:56:37.251Z,102197.36
2023-08-11T21:59:05.600Z,102193.36
2023-08-11T22:01:33.994Z,102198.48
2023-08-11T22:04:02.742Z,102201.70
2023-08-11T22:06:31.846Z,102205.45
2023-08-11T22:09:00.013Z,102206.71
2023-08-11T22:11:36.510Z,102202.00
2023-08-11T22:14:06.477Z,102206.10
2023-08-11T22:16:34.741Z,102205.27
2023-08-11T22:19:03.154Z,102202.48
2023-08-11T22:21:31.317Z,102201.11
2023-08-11T22:23:59.492Z,102198.31
2023-08-11T22:26:27.569Z,102197.46
2023-08-11T22:28:55.557Z,102199.77
2023-08-11T22:31:24.116Z,102204.02
2023-08-11T22:33:52.137Z,102199.83
2023-08-11T22:36:20.484Z,102199.67
2023-08-11T22:38:48.636Z,102197.76
2023-08-11T22:41:17.156Z,102195.67
2023-08-11T22:43:45.280Z,102197.27
2023-08-11T22:46:13.394Z,102193.23
2023-08-11T22:48:41.669Z,102194.86
2023-08-11T22:51:10.007Z,102198.40
2023-08-11T22:53:38.206Z,102197.55
2023-08-11T22:56:06.297Z,102195.98
2023-08-11T22:58:34.362Z,102191.96
2023-08-11T23:01:02.393Z,102192.69
2023-08-11T23:03:30.685Z,102192.90
2023-08-11T23:05:58.882Z,102186.61
2023-08-11T23:08:27.017Z,102185.23
2023-08-11T23:10:55.082Z,102182.44
2023-08-11T23:13:23.172Z,102179.64
2023-08-11T23:15:51.270Z,102181.92
2023-08-11T23:18:19.406Z,102184.20
2023-08-11T23:20:47.681Z,102186.67
2023-08-11T23:23:15.842Z,102187.05
2023-08-11T23:25:44.374Z,102189.52
2023-08-11T23:28:12.502Z,102187.09
2023-08-11T23:30:40.773Z,102182.89
2023-08-11T23:33:08.928Z,102179.56
2023-08-11T23:35:38.960Z,102179.58
2023-08-11T23:38:07.263Z,102177.48
2023-08-11T23:40:35.530Z,102179.44
2023-08-11T23:43:03.788Z,102179.61
2023-08-11T23:45:32.306Z,102179.63
2023-08-11T23:48:00.632Z,102184.73
2023-08-11T23:50:28.921Z,102184.39
2023-08-11T23:52:57.107Z,102184.23
2023-08-11T23:55:28.325Z,102186.52
2023-08-11T23:57:56.912Z,102187.07
